createdAt,value
2022-11-27T00:01:14.203Z,7.70
2022-11-27T00:03:42.343Z,7.70
2022-11-27T00:06:17.885Z,7.70
2022-11-27T00:08:45.963Z,7.80
2022-11-27T00:11:15.312Z,7.70
2022-11-27T00:13:42.594Z,7.90
2022-11-27T00:16:09.966Z,7.80
2022-11-27T00:18:37.336Z,7.70
2022-11-27T00:21:05.839Z,7.60
2022-11-27T00:23:34.156Z,7.60
2022-11-27T00:26:01.440Z,7.60
2022-11-27T00:28:28.465Z,7.60
2022-11-27T00:31:06.172Z,7.60
2022-11-27T00:33:33.790Z,7.70
2022-11-27T00:36:07.553Z,7.60
2022-11-27T00:38:38.654Z,7.60
2022-11-27T00:41:08.166Z,7.60
2022-11-27T00:43:43.514Z,7.70
2022-11-27T00:46:12.011Z,7.70
2022-11-27T00:48:39.002Z,7.70
2022-11-27T00:51:09.377Z,7.70
2022-11-27T00:53:36.347Z,7.60
2022-11-27T00:56:04.007Z,7.60
2022-11-27T00:58:30.997Z,7.60
2022-11-27T01:01:03.101Z,7.60
2022-11-27T01:03:31.429Z,7.60
2022-11-27T01:06:07.085Z,7.60
2022-11-27T01:08:34.821Z,7.60
2022-11-27T01:11:02.267Z,7.60
2022-11-27T01:13:32.280Z,7.60
2022-11-27T01:16:10.888Z,7.60
2022-11-27T01:18:39.648Z,7.60
2022-11-27T01:21:07.170Z,7.50
2022-11-27T01:23:34.568Z,7.50
2022-11-27T01:26:06.104Z,7.50
2022-11-27T01:28:33.633Z,7.50
2022-11-27T01:31:13.303Z,7.50
2022-11-27T01:33:40.360Z,7.50
2022-11-27T01:36:08.902Z,7.40
2022-11-27T01:38:36.253Z,7.40
2022-11-27T01:41:15.276Z,7.40
2022-11-27T01:44:02.757Z,7.50
2022-11-27T01:46:42.587Z,7.50
2022-11-27T01:49:09.550Z,7.50
2022-11-27T01:51:47.013Z,7.40
2022-11-27T01:54:16.428Z,7.40
2022-11-27T01:56:46.604Z,7.40
2022-11-27T01:59:14.736Z,7.40
2022-11-27T02:01:41.786Z,7.50
2022-11-27T02:04:08.802Z,7.50
2022-11-27T02:06:35.819Z,7.50
2022-11-27T02:09:02.881Z,7.50
2022-11-27T02:11:49.351Z,7.40
2022-11-27T02:14:25.933Z,7.50
2022-11-27T02:17:01.899Z,7.50
2022-11-27T02:19:50.583Z,7.50
2022-11-27T02:22:32.203Z,7.50
2022-11-27T02:25:18.254Z,7.50
2022-11-27T02:27:48.198Z,7.50
2022-11-27T02:30:16.183Z,7.50
2022-11-27T02:33:01.317Z,7.50
2022-11-27T02:35:44.759Z,7.50
2022-11-27T02:38:23.449Z,7.50
2022-11-27T02:41:09.563Z,7.40
2022-11-27T02:43:44.951Z,7.40
2022-11-27T02:46:13.583Z,7.50
2022-11-27T02:48:50.605Z,7.50
2022-11-27T02:51:24.531Z,7.50
2022-11-27T02:53:55.551Z,7.50
2022-11-27T02:56:27.058Z,7.50
2022-11-27T02:58:57.505Z,7.50
2022-11-27T03:01:27.780Z,7.50
2022-11-27T03:03:58.407Z,7.50
2022-11-27T03:06:31.436Z,7.50
2022-11-27T03:09:05.237Z,7.50
2022-11-27T03:11:32.395Z,7.50
2022-11-27T03:14:08.622Z,7.50
2022-11-27T03:17:18.325Z,7.50
2022-11-27T03:20:28.034Z,7.50
2022-11-27T03:22:55.781Z,7.50
2022-11-27T03:25:23.969Z,7.50
2022-11-27T03:28:00.101Z,7.50
2022-11-27T03:30:27.467Z,7.50
2022-11-27T03:32:55.143Z,7.50
2022-11-27T03:35:26.446Z,7.60
2022-11-27T03:37:54.783Z,7.60
2022-11-27T03:40:29.439Z,7.50
2022-11-27T03:43:22.301Z,7.50
2022-11-27T03:46:09.612Z,7.50
2022-11-27T03:48:50.436Z,7.50
2022-11-27T03:51:28.712Z,7.50
2022-11-27T03:54:16.404Z,7.50
2022-11-27T03:56:58.016Z,7.40
2022-11-27T03:59:33.016Z,7.40
2022-11-27T04:02:00.069Z,7.40
2022-11-27T04:04:27.063Z,7.40
2022-11-27T04:06:53.980Z,7.40
2022-11-27T04:09:21.002Z,7.40
2022-11-27T04:11:47.987Z,7.40
2022-11-27T04:14:14.897Z,7.40
2022-11-27T04:16:41.934Z,7.50
2022-11-27T04:19:09.507Z,7.50
2022-11-27T04:21:36.446Z,7.50
2022-11-27T04:24:03.595Z,7.40
2022-11-27T04:26:30.552Z,7.40
2022-11-27T04:28:57.440Z,7.40
2022-11-27T04:31:24.536Z,7.40
2022-11-27T04:33:51.508Z,7.40
2022-11-27T04:36:18.481Z,7.40
2022-11-27T04:38:45.446Z,7.40
2022-11-27T04:41:12.398Z,7.30
2022-11-27T04:43:39.287Z,7.30
2022-11-27T04:46:06.411Z,7.30
2022-11-27T04:48:33.404Z,7.30
2022-11-27T04:51:00.315Z,7.30
2022-11-27T04:53:27.307Z,7.30
2022-11-27T04:55:54.227Z,7.40
2022-11-27T04:58:21.144Z,7.40
2022-11-27T05:00:48.138Z,7.40
2022-11-27T05:03:15.158Z,7.40
2022-11-27T05:05:42.214Z,7.40
2022-11-27T05:08:09.238Z,7.40
2022-11-27T05:10:36.161Z,7.40
2022-11-27T05:13:03.110Z,7.40
2022-11-27T05:15:30.090Z,7.40
2022-11-27T05:17:57.032Z,7.40
2022-11-27T05:20:24.002Z,7.40
2022-11-27T05:22:50.992Z,7.40
2022-11-27T05:25:17.965Z,7.30
2022-11-27T05:27:44.931Z,7.40
2022-11-27T05:30:12.146Z,7.40
2022-11-27T05:32:39.096Z,7.40
2022-11-27T05:35:06.360Z,7.40
2022-11-27T05:37:33.383Z,7.40
2022-11-27T05:40:00.303Z,7.40
2022-11-27T05:42:27.287Z,7.40
2022-11-27T05:44:58.229Z,7.40
2022-11-27T05:47:25.611Z,7.40
2022-11-27T05:49:52.663Z,7.50
2022-11-27T05:52:19.641Z,7.50
2022-11-27T05:54:46.580Z,7.50
2022-11-27T05:57:13.530Z,7.40
2022-11-27T05:59:40.503Z,7.40
2022-11-27T06:02:07.527Z,7.40
2022-11-27T06:04:34.909Z,7.30
2022-11-27T06:07:01.885Z,7.40
2022-11-27T06:09:28.814Z,7.40
2022-11-27T06:11:55.847Z,7.30
2022-11-27T06:14:23.160Z,7.40
2022-11-27T06:16:50.158Z,7.40
2022-11-27T06:19:17.083Z,7.50
2022-11-27T06:21:46.667Z,7.50
2022-11-27T06:24:13.705Z,7.50
2022-11-27T06:26:40.758Z,7.50
2022-11-27T06:29:07.739Z,7.60
2022-11-27T06:31:34.969Z,7.60
2022-11-27T06:34:03.165Z,7.60
2022-11-27T06:36:33.136Z,7.60
2022-11-27T06:39:00.663Z,7.70
2022-11-27T06:41:28.620Z,7.60
2022-11-27T06:43:57.836Z,7.70
2022-11-27T06:46:27.986Z,7.70
2022-11-27T06:48:55.602Z,7.70
2022-11-27T06:51:27.833Z,7.70
2022-11-27T06:53:55.599Z,7.70
2022-11-27T06:56:27.436Z,7.70
2022-11-27T06:58:57.002Z,7.80
2022-11-27T07:01:25.427Z,7.80
2022-11-27T07:03:52.718Z,7.80
2022-11-27T07:06:23.062Z,7.80
2022-11-27T07:08:50.328Z,7.80
2022-11-27T07:11:20.691Z,7.90
2022-11-27T07:13:48.862Z,7.90
2022-11-27T07:16:16.687Z,7.90
2022-11-27T07:18:46.495Z,7.90
2022-11-27T07:21:13.814Z,7.80
2022-11-27T07:23:41.174Z,7.90
2022-11-27T07:26:24.323Z,7.90
2022-11-27T07:28:51.923Z,8.00
2022-11-27T07:31:23.623Z,8.00
2022-11-27T07:33:52.685Z,8.00
2022-11-27T07:36:30.940Z,8.00
2022-11-27T07:38:58.465Z,8.00
2022-11-27T07:41:30.615Z,8.10
2022-11-27T07:44:00.970Z,8.10
2022-11-27T07:46:28.046Z,8.00
2022-11-27T07:48:55.005Z,8.00
2022-11-27T07:51:22.904Z,8.00
2022-11-27T07:53:52.081Z,7.70
2022-11-27T07:56:19.301Z,7.90
2022-11-27T07:58:46.545Z,7.70
2022-11-27T08:01:16.549Z,7.70
2022-11-27T08:03:47.015Z,7.80
2022-11-27T08:06:24.951Z,7.90
2022-11-27T08:08:52.585Z,7.90
2022-11-27T08:11:29.932Z,7.90
2022-11-27T08:13:59.431Z,8.00
2022-11-27T08:16:27.938Z,7.90
2022-11-27T08:18:55.425Z,8.00
2022-11-27T08:21:22.443Z,8.10
2022-11-27T08:23:49.470Z,8.00
2022-11-27T08:26:16.545Z,8.10
2022-11-27T08:28:44.016Z,8.00
2022-11-27T08:31:13.629Z,8.00
2022-11-27T08:33:41.087Z,8.00
2022-11-27T08:36:12.566Z,8.00
2022-11-27T08:38:42.263Z,8.00
2022-11-27T08:41:10.062Z,8.10
2022-11-27T08:43:37.127Z,8.10
2022-11-27T08:46:06.407Z,8.10
2022-11-27T08:48:34.196Z,8.10
2022-11-27T08:51:06.545Z,8.20
2022-11-27T08:53:34.270Z,8.20
2022-11-27T08:56:08.922Z,8.40
2022-11-27T08:58:35.910Z,8.60
2022-11-27T09:01:15.741Z,8.60
2022-11-27T09:03:42.882Z,8.80
2022-11-27T09:06:16.870Z,8.90
2022-11-27T09:08:44.086Z,9.00
2022-11-27T09:11:13.087Z,9.20
2022-11-27T09:13:40.643Z,9.30
2022-11-27T09:16:10.440Z,9.50
2022-11-27T09:18:37.627Z,9.60
2022-11-27T09:21:07.830Z,9.60
2022-11-27T09:23:37.474Z,9.60
2022-11-27T09:26:08.037Z,9.70
2022-11-27T09:28:35.760Z,9.90
2022-11-27T09:31:05.430Z,9.90
2022-11-27T09:33:34.550Z,9.80
2022-11-27T09:36:12.983Z,9.90
2022-11-27T09:38:40.247Z,9.80
2022-11-27T09:41:38.785Z,9.80
2022-11-27T09:44:31.797Z,9.60
2022-11-27T09:47:39.947Z,9.50
2022-11-27T09:50:26.175Z,9.40
2022-11-27T09:53:13.388Z,9.40
2022-11-27T09:55:44.600Z,9.40
2022-11-27T09:58:45.700Z,9.50
2022-11-27T10:01:22.900Z,9.30
2022-11-27T10:03:52.086Z,9.40
2022-11-27T10:06:44.482Z,9.40
2022-11-27T10:09:22.004Z,9.60
2022-11-27T10:12:00.902Z,9.70
2022-11-27T10:14:35.020Z,9.90
2022-11-27T10:17:16.613Z,9.90
2022-11-27T10:20:08.285Z,10.00
2022-11-27T10:22:54.929Z,9.60
2022-11-27T10:25:33.977Z,9.90
2022-11-27T10:28:12.269Z,10.10
2022-11-27T10:30:50.870Z,10.10
2022-11-27T10:33:24.041Z,10.00
2022-11-27T10:35:51.496Z,10.10
2022-11-27T10:38:28.231Z,10.40
2022-11-27T10:40:58.006Z,10.70
2022-11-27T10:43:25.871Z,10.90
2022-11-27T10:46:09.386Z,10.60
2022-11-27T10:48:37.143Z,10.60
2022-11-27T10:51:10.103Z,10.70
2022-11-27T10:53:37.412Z,10.60
2022-11-27T10:56:15.751Z,10.60
2022-11-27T10:58:51.195Z,10.70
2022-11-27T11:01:20.288Z,10.60
2022-11-27T11:03:47.422Z,10.30
2022-11-27T11:06:26.680Z,10.00
2022-11-27T11:09:06.212Z,9.90
2022-11-27T11:11:33.443Z,9.80
2022-11-27T11:14:23.294Z,9.60
2022-11-27T11:16:51.699Z,9.70
2022-11-27T11:19:33.723Z,9.80
2022-11-27T11:22:08.094Z,9.90
2022-11-27T11:24:42.360Z,10.00
2022-11-27T11:27:30.051Z,10.00
2022-11-27T11:30:01.976Z,10.20
2022-11-27T11:32:36.249Z,10.30
2022-11-27T11:35:23.754Z,10.40
2022-11-27T11:37:52.058Z,10.60
2022-11-27T11:40:26.162Z,10.60
2022-11-27T11:42:54.962Z,10.80
2022-11-27T11:45:22.947Z,10.90
2022-11-27T11:47:56.054Z,11.00
2022-11-27T11:50:28.582Z,11.00
2022-11-27T11:53:08.483Z,11.10
2022-11-27T11:55:43.645Z,11.20
2022-11-27T11:58:46.999Z,11.20
2022-11-27T12:01:36.663Z,10.90
2022-11-27T12:04:12.618Z,10.90
2022-11-27T12:07:08.756Z,10.90
2022-11-27T12:09:57.394Z,11.00
2022-11-27T12:12:24.256Z,11.00
2022-11-27T12:15:17.274Z,11.00
2022-11-27T12:18:02.297Z,11.10
2022-11-27T12:21:06.803Z,11.20
2022-11-27T12:23:54.486Z,11.20
2022-11-27T12:26:30.338Z,11.30
2022-11-27T12:29:25.355Z,11.40
2022-11-27T12:32:25.759Z,11.40
2022-11-27T12:35:20.284Z,11.40
2022-11-27T12:38:15.870Z,11.40
2022-11-27T12:40:48.544Z,11.40
2022-11-27T12:43:36.231Z,11.40
2022-11-27T12:46:21.454Z,11.40
2022-11-27T12:48:55.824Z,11.20
2022-11-27T12:51:34.175Z,11.40
2022-11-27T12:54:22.677Z,11.40
2022-11-27T12:56:56.525Z,11.50
2022-11-27T12:59:42.578Z,11.20
2022-11-27T13:02:09.538Z,11.30
2022-11-27T13:05:05.487Z,11.20
2022-11-27T13:08:02.586Z,11.20
2022-11-27T13:10:43.965Z,11.20
2022-11-27T13:13:30.288Z,10.80
2022-11-27T13:16:21.064Z,10.50
2022-11-27T13:18:56.898Z,10.60
2022-11-27T13:21:28.160Z,10.60
2022-11-27T13:23:55.365Z,10.70
2022-11-27T13:26:40.919Z,11.00
2022-11-27T13:29:17.838Z,11.10
2022-11-27T13:31:46.654Z,11.20
2022-11-27T13:34:21.430Z,11.10
2022-11-27T13:37:06.484Z,11.10
2022-11-27T13:39:40.723Z,11.10
2022-11-27T13:42:20.128Z,11.10
2022-11-27T13:44:59.092Z,11.10
2022-11-27T13:47:29.945Z,11.10
2022-11-27T13:50:19.335Z,10.90
2022-11-27T13:53:04.396Z,10.90
2022-11-27T13:55:36.874Z,10.80
2022-11-27T13:58:05.663Z,10.70
2022-11-27T14:00:43.878Z,10.70
2022-11-27T14:03:25.989Z,10.70
2022-11-27T14:05:53.336Z,10.60
2022-11-27T14:08:25.475Z,10.70
2022-11-27T14:10:59.786Z,10.70
2022-11-27T14:13:40.960Z,10.70
2022-11-27T14:16:29.137Z,10.60
2022-11-27T14:19:04.493Z,10.70
2022-11-27T14:21:41.084Z,10.60
2022-11-27T14:24:27.952Z,10.50
2022-11-27T14:26:55.071Z,10.50
2022-11-27T14:29:24.128Z,10.40
2022-11-27T14:32:00.624Z,10.40
2022-11-27T14:34:34.617Z,10.30
2022-11-27T14:37:01.601Z,10.30
2022-11-27T14:39:38.021Z,10.30
2022-11-27T14:42:08.174Z,10.30
2022-11-27T14:44:35.574Z,10.20
2022-11-27T14:47:06.870Z,10.10
2022-11-27T14:49:34.510Z,10.10
2022-11-27T14:52:12.907Z,10.00
2022-11-27T14:54:41.264Z,9.90
2022-11-27T14:57:17.831Z,9.90
2022-11-27T14:59:44.834Z,9.90
2022-11-27T15:02:11.732Z,9.90
2022-11-27T15:04:41.241Z,9.90
2022-11-27T15:07:27.278Z,9.90
2022-11-27T15:09:57.282Z,9.80
2022-11-27T15:12:28.703Z,9.80
2022-11-27T15:15:20.128Z,9.80
2022-11-27T15:17:51.181Z,9.80
2022-11-27T15:20:32.245Z,9.80
2022-11-27T15:23:00.221Z,9.80
2022-11-27T15:25:34.803Z,9.70
2022-11-27T15:28:02.143Z,9.80
2022-11-27T15:30:29.511Z,9.70
2022-11-27T15:32:56.933Z,9.70
2022-11-27T15:35:36.363Z,9.70
2022-11-27T15:38:10.697Z,9.60
2022-11-27T15:40:40.450Z,9.50
2022-11-27T15:43:15.151Z,9.50
2022-11-27T15:45:44.358Z,9.50
2022-11-27T15:48:17.080Z,9.40
2022-11-27T15:50:48.376Z,9.40
2022-11-27T15:53:18.637Z,9.40
2022-11-27T15:55:45.611Z,9.40
2022-11-27T15:58:12.528Z,9.40
2022-11-27T16:00:40.751Z,9.40
2022-11-27T16:03:07.769Z,9.40
2022-11-27T16:05:34.741Z,9.30
2022-11-27T16:08:01.757Z,9.20
2022-11-27T16:10:28.727Z,9.30
2022-11-27T16:12:57.746Z,9.20
2022-11-27T16:15:27.641Z,9.20
2022-11-27T16:17:58.529Z,9.20
2022-11-27T16:20:26.212Z,9.10
2022-11-27T16:22:54.000Z,9.00
2022-11-27T16:25:20.959Z,8.90
2022-11-27T16:27:47.939Z,8.90
2022-11-27T16:30:14.975Z,8.90
2022-11-27T16:32:41.901Z,8.90
2022-11-27T16:35:09.078Z,8.80
2022-11-27T16:37:35.983Z,8.80
2022-11-27T16:40:03.331Z,8.80
2022-11-27T16:42:38.289Z,8.80
2022-11-27T16:45:06.366Z,8.80
2022-11-27T16:47:33.982Z,8.80
2022-11-27T16:50:01.145Z,8.70
2022-11-27T16:52:28.120Z,8.70
2022-11-27T16:54:55.981Z,8.70
2022-11-27T16:57:22.987Z,8.70
2022-11-27T16:59:50.944Z,8.60
2022-11-27T17:02:17.945Z,8.70
2022-11-27T17:04:45.239Z,8.70
2022-11-27T17:07:12.391Z,8.70
2022-11-27T17:09:42.226Z,8.80
2022-11-27T17:12:09.152Z,8.80
2022-11-27T17:14:37.090Z,8.80
2022-11-27T17:17:06.217Z,8.80
2022-11-27T17:19:34.323Z,8.80
2022-11-27T17:22:01.549Z,8.80
2022-11-27T17:24:28.999Z,8.70
2022-11-27T17:26:56.110Z,8.70
2022-11-27T17:29:23.304Z,8.70
2022-11-27T17:31:51.056Z,8.60
2022-11-27T17:34:18.641Z,8.70
2022-11-27T17:36:46.778Z,8.60
2022-11-27T17:39:15.125Z,8.60
2022-11-27T17:41:44.936Z,8.60
2022-11-27T17:44:12.929Z,8.60
2022-11-27T17:46:40.144Z,8.60
2022-11-27T17:49:08.122Z,8.60
2022-11-27T17:51:36.570Z,8.60
2022-11-27T17:54:05.520Z,8.60
2022-11-27T17:56:34.195Z,8.60
2022-11-27T17:59:01.501Z,8.50
2022-11-27T18:01:29.502Z,8.50
2022-11-27T18:04:00.378Z,8.50
2022-11-27T18:06:27.796Z,8.50
2022-11-27T18:08:56.611Z,8.40
2022-11-27T18:11:27.838Z,8.40
2022-11-27T18:13:55.237Z,8.40
2022-11-27T18:16:25.386Z,8.40
2022-11-27T18:18:54.307Z,8.40
2022-11-27T18:21:22.080Z,8.50
2022-11-27T18:24:21.390Z,8.40
2022-11-27T18:27:06.632Z,8.50
2022-11-27T18:29:24.304Z,8.50
2022-11-27T18:31:52.913Z,8.50
2022-11-27T18:34:19.968Z,8.40
2022-11-27T18:36:46.910Z,8.40
2022-11-27T18:39:14.134Z,8.50
2022-11-27T18:41:41.320Z,8.40
2022-11-27T18:44:08.547Z,8.40
2022-11-27T18:46:35.708Z,8.40
2022-11-27T18:49:02.775Z,8.40
2022-11-27T18:51:29.682Z,8.40
2022-11-27T18:53:56.726Z,8.30
2022-11-27T18:56:26.378Z,8.30
2022-11-27T18:58:54.461Z,8.30
2022-11-27T19:01:27.622Z,8.30
2022-11-27T19:03:55.249Z,8.20
2022-11-27T19:06:25.050Z,8.20
2022-11-27T19:08:52.591Z,8.20
2022-11-27T19:11:23.588Z,8.20
2022-11-27T19:13:54.038Z,8.20
2022-11-27T19:16:26.878Z,8.20
2022-11-27T19:18:57.042Z,8.20
2022-11-27T19:21:27.001Z,8.20
2022-11-27T19:23:54.471Z,8.10
2022-11-27T19:26:24.295Z,8.10
2022-11-27T19:28:52.945Z,8.10
2022-11-27T19:31:21.038Z,8.20
2022-11-27T19:33:59.710Z,8.10
2022-11-27T19:36:29.000Z,8.10
2022-11-27T19:38:58.640Z,8.10
2022-11-27T19:41:25.912Z,8.00
2022-11-27T19:43:53.029Z,8.10
2022-11-27T19:46:21.356Z,8.10
2022-11-27T19:48:49.487Z,8.00
2022-11-27T19:51:17.445Z,8.00
2022-11-27T19:53:44.453Z,8.00
2022-11-27T19:56:12.043Z,8.00
2022-11-27T19:58:40.368Z,8.00
2022-11-27T20:01:11.983Z,8.10
2022-11-27T20:03:39.462Z,8.10
2022-11-27T20:06:08.870Z,8.00
2022-11-27T20:08:36.385Z,7.90
2022-11-27T20:11:06.315Z,7.90
2022-11-27T20:13:33.701Z,7.80
2022-11-27T20:16:01.142Z,7.80
2022-11-27T20:18:28.257Z,7.80
2022-11-27T20:21:13.076Z,7.70
2022-11-27T20:23:40.351Z,7.70
2022-11-27T20:26:13.878Z,7.60
2022-11-27T20:28:41.534Z,7.60
2022-11-27T20:31:14.223Z,7.60
2022-11-27T20:33:41.622Z,7.60
2022-11-27T20:36:13.661Z,7.60
2022-11-27T20:38:40.587Z,7.50
2022-11-27T20:41:09.597Z,7.40
2022-11-27T20:43:37.383Z,7.30
2022-11-27T20:46:05.784Z,7.30
2022-11-27T20:48:32.741Z,7.30
2022-11-27T20:51:06.977Z,7.20
2022-11-27T20:53:33.915Z,7.20
2022-11-27T20:56:07.202Z,7.20
2022-11-27T20:58:38.343Z,7.20
2022-11-27T21:01:21.919Z,7.20
2022-11-27T21:03:51.064Z,7.20
2022-11-27T21:06:20.724Z,7.20
2022-11-27T21:08:48.653Z,7.20
2022-11-27T21:11:25.132Z,7.20
2022-11-27T21:14:09.795Z,7.20
2022-11-27T21:16:42.018Z,7.20
2022-11-27T21:19:18.385Z,7.20
2022-11-27T21:21:45.458Z,7.20
2022-11-27T21:24:15.069Z,7.20
2022-11-27T21:26:42.410Z,7.10
2022-11-27T21:29:12.546Z,7.10
2022-11-27T21:31:45.086Z,7.10
2022-11-27T21:34:14.066Z,7.10
2022-11-27T21:36:41.158Z,7.10
2022-11-27T21:39:09.329Z,7.10
2022-11-27T21:41:36.773Z,7.00
2022-11-27T21:44:04.943Z,7.00
2022-11-27T21:46:31.945Z,7.00
2022-11-27T21:49:01.409Z,7.00
2022-11-27T21:51:29.571Z,7.00
2022-11-27T21:53:58.582Z,7.00
2022-11-27T21:56:27.498Z,7.00
2022-11-27T21:58:54.648Z,7.10
2022-11-27T22:01:24.218Z,7.10
2022-11-27T22:03:54.268Z,7.10
2022-11-27T22:06:22.944Z,7.00
2022-11-27T22:08:50.815Z,7.00
2022-11-27T22:11:22.132Z,7.00
2022-11-27T22:13:49.378Z,7.00
2022-11-27T22:16:19.377Z,7.00
2022-11-27T22:18:47.479Z,7.00
2022-11-27T22:21:15.875Z,7.00
2022-11-27T22:23:43.447Z,7.00
2022-11-27T22:26:13.784Z,6.90
2022-11-27T22:28:41.131Z,6.90
2022-11-27T22:31:12.184Z,6.80
2022-11-27T22:33:41.356Z,6.80
2022-11-27T22:36:20.868Z,6.70
2022-11-27T22:38:50.608Z,6.60
2022-11-27T22:41:20.125Z,6.50
2022-11-27T22:43:47.196Z,6.30
2022-11-27T22:46:20.288Z,6.30
2022-11-27T22:48:47.471Z,6.20
2022-11-27T22:51:14.434Z,6.10
2022-11-27T22:53:41.431Z,6.00
2022-11-27T22:56:12.779Z,5.90
2022-11-27T22:58:41.906Z,5.90
2022-11-27T23:01:16.392Z,5.80
2022-11-27T23:03:43.526Z,5.70
2022-11-27T23:06:15.265Z,5.90
2022-11-27T23:08:43.983Z,5.80
2022-11-27T23:11:19.045Z,5.60
2022-11-27T23:13:49.615Z,5.50
2022-11-27T23:16:17.834Z,5.40
2022-11-27T23:18:44.918Z,5.40
2022-11-27T23:21:14.952Z,5.30
2022-11-27T23:23:42.255Z,5.40
2022-11-27T23:26:17.666Z,5.50
2022-11-27T23:28:46.217Z,5.60
2022-11-27T23:31:42.714Z,5.70
2022-11-27T23:34:13.679Z,5.70
2022-11-27T23:36:40.670Z,5.80
2022-11-27T23:39:08.943Z,5.90
2022-11-27T23:41:35.971Z,5.90
2022-11-27T23:44:03.166Z,5.90
2022-11-27T23:46:31.184Z,6.10
2022-11-27T23:48:59.945Z,6.10
2022-11-27T23:51:30.262Z,6.10
2022-11-27T23:53:57.626Z,6.20
2022-11-27T23:56:31.802Z,6.20
2022-11-27T23:58:59.495Z,6.20
